sensor_id;sensor_type;location;lat;lon;timestamp;pressure;altitude;pressure_sealevel;temperature;humidity
54556;BME280;57291;37.520;15.106;2022-12-07T00:01:22;73774.44;;;13.92;85.27
54556;BME280;57291;37.520;15.106;2022-12-07T00:03:53;73773.31;;;13.90;85.36
54556;BME280;57291;37.520;15.106;2022-12-07T00:06:21;73772.22;;;13.89;85.63
54556;BME280;57291;37.520;15.106;2022-12-07T00:08:48;73770.75;;;13.88;85.75
54556;BME280;57291;37.520;15.106;2022-12-07T00:11:17;73769.75;;;13.87;86.17
54556;BME280;57291;37.520;15.106;2022-12-07T00:13:46;73768.44;;;13.86;86.43
54556;BME280;57291;37.520;15.106;2022-12-07T00:16:18;73767.41;;;13.85;86.53
54556;BME280;57291;37.520;15.106;2022-12-07T00:18:46;73766.09;;;13.84;86.71
54556;BME280;57291;37.520;15.106;2022-12-07T00:21:17;73765.63;;;13.83;86.82
54556;BME280;57291;37.520;15.106;2022-12-07T00:23:46;73764.75;;;13.82;87.07
54556;BME280;57291;37.520;15.106;2022-12-07T00:26:19;73764.31;;;13.81;87.28
54556;BME280;57291;37.520;15.106;2022-12-07T00:28:48;73764.19;;;13.81;87.32
54556;BME280;57291;37.520;15.106;2022-12-07T00:31:17;73763.91;;;13.81;87.33
54556;BME280;57291;37.520;15.106;2022-12-07T00:33:45;73763.78;;;13.81;87.15
54556;BME280;57291;37.520;15.106;2022-12-07T00:36:18;73763.78;;;13.81;87.29
54556;BME280;57291;37.520;15.106;2022-12-07T00:38:53;73763.31;;;13.80;87.25
54556;BME280;57291;37.520;15.106;2022-12-07T00:41:22;73763.50;;;13.80;87.50
54556;BME280;57291;37.520;15.106;2022-12-07T00:43:50;73763.78;;;13.81;87.24
54556;BME280;57291;37.520;15.106;2022-12-07T00:46:18;73764.03;;;13.81;86.85
54556;BME280;57291;37.520;15.106;2022-12-07T00:48:47;73764.78;;;13.82;86.66
54556;BME280;57291;37.520;15.106;2022-12-07T00:51:16;73764.59;;;13.82;87.25
54556;BME280;57291;37.520;15.106;2022-12-07T00:53:44;73764.25;;;13.82;87.60
54556;BME280;57291;37.520;15.106;2022-12-07T00:56:23;73764.09;;;13.82;88.12
54556;BME280;57291;37.520;15.106;2022-12-07T00:58:56;73763.91;;;13.82;87.90
54556;BME280;57291;37.520;15.106;2022-12-07T01:01:25;73763.91;;;13.82;88.03
54556;BME280;57291;37.520;15.106;2022-12-07T01:03:53;73764.09;;;13.82;88.15
54556;BME280;57291;37.520;15.106;2022-12-07T01:06:23;73764.06;;;13.82;88.47
54556;BME280;57291;37.520;15.106;2022-12-07T01:08:51;73764.81;;;13.82;88.36
54556;BME280;57291;37.520;15.106;2022-12-07T01:11:21;73765.38;;;13.83;88.24
54556;BME280;57291;37.520;15.106;2022-12-07T01:13:53;73766.03;;;13.83;88.28
54556;BME280;57291;37.520;15.106;2022-12-07T01:16:22;73766.59;;;13.84;88.37
54556;BME280;57291;37.520;15.106;2022-12-07T01:18:55;73766.38;;;13.84;88.49
54556;BME280;57291;37.520;15.106;2022-12-07T01:21:25;73766.84;;;13.84;88.57
54556;BME280;57291;37.520;15.106;2022-12-07T01:23:52;73766.78;;;13.84;88.60
54556;BME280;57291;37.520;15.106;2022-12-07T01:26:23;73767.41;;;13.85;88.48
54556;BME280;57291;37.520;15.106;2022-12-07T01:28:51;73767.69;;;13.85;88.29
54556;BME280;57291;37.520;15.106;2022-12-07T01:31:20;73768.59;;;13.86;88.11
54556;BME280;57291;37.520;15.106;2022-12-07T01:33:50;73768.88;;;13.86;87.90
54556;BME280;57291;37.520;15.106;2022-12-07T01:36:21;73769.00;;;13.86;87.84
54556;BME280;57291;37.520;15.106;2022-12-07T01:38:52;73769.59;;;13.87;87.86
54556;BME280;57291;37.520;15.106;2022-12-07T01:41:20;73769.69;;;13.87;87.92
54556;BME280;57291;37.520;15.106;2022-12-07T01:44:11;73769.69;;;13.87;87.65
54556;BME280;57291;37.520;15.106;2022-12-07T01:46:40;73769.81;;;13.87;87.78
54556;BME280;57291;37.520;15.106;2022-12-07T01:49:12;73770.22;;;13.88;87.61
54556;BME280;57291;37.520;15.106;2022-12-07T01:51:42;73770.88;;;13.88;87.75
54556;BME280;57291;37.520;15.106;2022-12-07T01:54:11;73771.63;;;13.89;87.66
54556;BME280;57291;37.520;15.106;2022-12-07T01:56:42;73771.75;;;13.89;87.17
54556;BME280;57291;37.520;15.106;2022-12-07T01:59:13;73772.78;;;13.90;86.30
54556;BME280;57291;37.520;15.106;2022-12-07T02:01:40;73773.03;;;13.90;86.32
54556;BME280;57291;37.520;15.106;2022-12-07T02:04:09;73773.63;;;13.91;86.16
54556;BME280;57291;37.520;15.106;2022-12-07T02:06:37;73773.84;;;13.91;86.25
54556;BME280;57291;37.520;15.106;2022-12-07T02:09:05;73774.78;;;13.92;86.18
54556;BME280;57291;37.520;15.106;2022-12-07T02:11:32;73775.38;;;13.92;86.18
54556;BME280;57291;37.520;15.106;2022-12-07T02:13:59;73775.66;;;13.92;86.27
54556;BME280;57291;37.520;15.106;2022-12-07T02:16:57;73776.25;;;13.93;86.27
54556;BME280;57291;37.520;15.106;2022-12-07T02:20:11;73776.34;;;13.93;86.24
54556;BME280;57291;37.520;15.106;2022-12-07T02:25:49;73777.97;;;13.94;86.24
54556;BME280;57291;37.520;15.106;2022-12-07T02:28:28;73778.88;;;13.95;86.46
54556;BME280;57291;37.520;15.106;2022-12-07T02:31:03;73779.63;;;13.96;86.47
54556;BME280;57291;37.520;15.106;2022-12-07T02:33:37;73780.47;;;13.96;86.58
54556;BME280;57291;37.520;15.106;2022-12-07T02:36:12;73781.81;;;13.98;86.87
54556;BME280;57291;37.520;15.106;2022-12-07T02:38:47;73782.81;;;13.99;86.79
54556;BME280;57291;37.520;15.106;2022-12-07T02:41:42;73783.56;;;13.99;86.51
54556;BME280;57291;37.520;15.106;2022-12-07T02:44:13;73783.81;;;14.00;86.74
54556;BME280;57291;37.520;15.106;2022-12-07T02:46:45;73784.28;;;14.00;86.68
54556;BME280;57291;37.520;15.106;2022-12-07T02:49:14;73783.94;;;14.00;86.77
54556;BME280;57291;37.520;15.106;2022-12-07T02:51:43;73784.09;;;14.00;87.04
54556;BME280;57291;37.520;15.106;2022-12-07T02:54:16;73784.44;;;14.00;86.96
54556;BME280;57291;37.520;15.106;2022-12-07T03:05:20;73782.81;;;13.99;87.65
54556;BME280;57291;37.520;15.106;2022-12-07T03:11:00;73782.44;;;13.98;87.85
54556;BME280;57291;37.520;15.106;2022-12-07T03:14:00;73782.50;;;13.98;87.89
54556;BME280;57291;37.520;15.106;2022-12-07T03:16:41;73781.75;;;13.97;87.83
54556;BME280;57291;37.520;15.106;2022-12-07T03:19:17;73781.75;;;13.97;87.95
54556;BME280;57291;37.520;15.106;2022-12-07T03:21:58;73781.41;;;13.97;87.86
54556;BME280;57291;37.520;15.106;2022-12-07T03:24:35;73781.16;;;13.96;87.92
54556;BME280;57291;37.520;15.106;2022-12-07T03:27:08;73780.69;;;13.96;88.08
54556;BME280;57291;37.520;15.106;2022-12-07T03:29:42;73780.16;;;13.95;88.08
54556;BME280;57291;37.520;15.106;2022-12-07T03:32:28;73778.81;;;13.94;88.23
54556;BME280;57291;37.520;15.106;2022-12-07T03:37:34;73776.28;;;13.92;88.44
54556;BME280;57291;37.520;15.106;2022-12-07T03:42:34;73772.34;;;13.88;88.88
54556;BME280;57291;37.520;15.106;2022-12-07T03:45:02;73770.19;;;13.86;88.85
54556;BME280;57291;37.520;15.106;2022-12-07T03:47:45;73768.19;;;13.84;89.25
54556;BME280;57291;37.520;15.106;2022-12-07T03:50:27;73765.75;;;13.82;89.56
54556;BME280;57291;37.520;15.106;2022-12-07T03:52:59;73763.94;;;13.80;90.31
54556;BME280;57291;37.520;15.106;2022-12-07T03:55:34;73761.13;;;13.78;90.27
54556;BME280;57291;37.520;15.106;2022-12-07T03:58:05;73759.16;;;13.76;90.55
54556;BME280;57291;37.520;15.106;2022-12-07T04:00:34;73757.16;;;13.73;90.63
54556;BME280;57291;37.520;15.106;2022-12-07T04:03:01;73754.19;;;13.71;90.99
54556;BME280;57291;37.520;15.106;2022-12-07T04:05:28;73752.03;;;13.69;91.06
54556;BME280;57291;37.520;15.106;2022-12-07T04:07:56;73749.50;;;13.67;91.32
54556;BME280;57291;37.520;15.106;2022-12-07T04:10:23;73747.28;;;13.66;91.29
54556;BME280;57291;37.520;15.106;2022-12-07T04:12:50;73745.66;;;13.64;91.18
54556;BME280;57291;37.520;15.106;2022-12-07T04:15:17;73744.31;;;13.63;91.01
54556;BME280;57291;37.520;15.106;2022-12-07T04:17:45;73743.84;;;13.62;90.54
54556;BME280;57291;37.520;15.106;2022-12-07T04:20:12;73742.16;;;13.61;90.53
54556;BME280;57291;37.520;15.106;2022-12-07T04:22:39;73741.47;;;13.60;90.31
54556;BME280;57291;37.520;15.106;2022-12-07T04:25:06;73740.94;;;13.60;90.43
54556;BME280;57291;37.520;15.106;2022-12-07T04:27:34;73740.22;;;13.59;90.35
54556;BME280;57291;37.520;15.106;2022-12-07T04:30:01;73739.19;;;13.58;90.13
54556;BME280;57291;37.520;15.106;2022-12-07T04:32:29;73738.75;;;13.58;90.03
54556;BME280;57291;37.520;15.106;2022-12-07T04:34:56;73737.44;;;13.57;90.39
54556;BME280;57291;37.520;15.106;2022-12-07T04:37:23;73736.28;;;13.56;90.06
54556;BME280;57291;37.520;15.106;2022-12-07T04:39:51;73734.97;;;13.54;90.61
54556;BME280;57291;37.520;15.106;2022-12-07T04:42:18;73734.16;;;13.53;90.98
54556;BME280;57291;37.520;15.106;2022-12-07T04:44:45;73732.66;;;13.52;90.92
54556;BME280;57291;37.520;15.106;2022-12-07T04:47:12;73731.28;;;13.52;90.77
54556;BME280;57291;37.520;15.106;2022-12-07T04:49:39;73730.41;;;13.51;90.84
54556;BME280;57291;37.520;15.106;2022-12-07T04:52:06;73729.41;;;13.50;91.14
54556;BME280;57291;37.520;15.106;2022-12-07T04:54:33;73728.69;;;13.49;91.23
54556;BME280;57291;37.520;15.106;2022-12-07T04:57:00;73727.94;;;13.48;90.79
54556;BME280;57291;37.520;15.106;2022-12-07T04:59:27;73726.78;;;13.47;90.35
54556;BME280;57291;37.520;15.106;2022-12-07T05:01:55;73725.78;;;13.46;90.30
54556;BME280;57291;37.520;15.106;2022-12-07T05:04:22;73724.50;;;13.45;90.42
54556;BME280;57291;37.520;15.106;2022-12-07T05:06:49;73723.06;;;13.44;90.54
54556;BME280;57291;37.520;15.106;2022-12-07T05:09:16;73721.78;;;13.43;90.57
54556;BME280;57291;37.520;15.106;2022-12-07T05:11:43;73719.78;;;13.41;90.23
54556;BME280;57291;37.520;15.106;2022-12-07T05:14:18;73718.50;;;13.40;90.00
54556;BME280;57291;37.520;15.106;2022-12-07T05:16:49;73716.94;;;13.38;89.91
54556;BME280;57291;37.520;15.106;2022-12-07T05:19:17;73715.13;;;13.37;90.07
54556;BME280;57291;37.520;15.106;2022-12-07T05:21:45;73713.88;;;13.36;89.92
54556;BME280;57291;37.520;15.106;2022-12-07T05:24:14;73712.16;;;13.34;89.97
54556;BME280;57291;37.520;15.106;2022-12-07T05:26:42;73710.41;;;13.33;90.28
54556;BME280;57291;37.520;15.106;2022-12-07T05:29:12;73708.94;;;13.31;90.31
54556;BME280;57291;37.520;15.106;2022-12-07T05:31:39;73706.88;;;13.30;90.45
54556;BME280;57291;37.520;15.106;2022-12-07T05:34:07;73705.88;;;13.29;90.66
54556;BME280;57291;37.520;15.106;2022-12-07T05:36:34;73705.63;;;13.28;90.78
54556;BME280;57291;37.520;15.106;2022-12-07T05:39:02;73705.03;;;13.28;90.66
54556;BME280;57291;37.520;15.106;2022-12-07T05:41:29;73704.75;;;13.28;90.47
54556;BME280;57291;37.520;15.106;2022-12-07T05:44:14;73704.13;;;13.27;90.62
54556;BME280;57291;37.520;15.106;2022-12-07T05:46:42;73703.84;;;13.27;90.36
54556;BME280;57291;37.520;15.106;2022-12-07T05:49:09;73702.81;;;13.26;90.36
54556;BME280;57291;37.520;15.106;2022-12-07T05:51:36;73701.78;;;13.25;90.64
54556;BME280;57291;37.520;15.106;2022-12-07T05:54:03;73700.81;;;13.24;90.53
54556;BME280;57291;37.520;15.106;2022-12-07T05:56:30;73698.88;;;13.23;90.74
54556;BME280;57291;37.520;15.106;2022-12-07T05:58:58;73697.28;;;13.21;90.85
54556;BME280;57291;37.520;15.106;2022-12-07T06:01:43;73695.72;;;13.20;91.02
54556;BME280;57291;37.520;15.106;2022-12-07T06:04:11;73693.78;;;13.18;91.28
54556;BME280;57291;37.520;15.106;2022-12-07T06:06:38;73692.47;;;13.17;91.60
54556;BME280;57291;37.520;15.106;2022-12-07T06:09:05;73690.94;;;13.16;91.72
54556;BME280;57291;37.520;15.106;2022-12-07T06:11:32;73689.91;;;13.15;91.46
54556;BME280;57291;37.520;15.106;2022-12-07T06:14:18;73689.03;;;13.14;91.46
54556;BME280;57291;37.520;15.106;2022-12-07T06:16:46;73688.91;;;13.14;91.63
54556;BME280;57291;37.520;15.106;2022-12-07T06:19:13;73688.91;;;13.14;91.37
54556;BME280;57291;37.520;15.106;2022-12-07T06:21:41;73689.03;;;13.14;91.20
54556;BME280;57291;37.520;15.106;2022-12-07T06:24:12;73689.34;;;13.15;91.32
54556;BME280;57291;37.520;15.106;2022-12-07T06:26:40;73689.50;;;13.15;91.28
54556;BME280;57291;37.520;15.106;2022-12-07T06:29:08;73689.91;;;13.15;91.31
54556;BME280;57291;37.520;15.106;2022-12-07T06:31:35;73689.97;;;13.16;91.32
54556;BME280;57291;37.520;15.106;2022-12-07T06:34:05;73690.88;;;13.17;91.29
54556;BME280;57291;37.520;15.106;2022-12-07T06:36:33;73691.69;;;13.18;91.10
54556;BME280;57291;37.520;15.106;2022-12-07T06:39:01;73692.69;;;13.19;90.94
54556;BME280;57291;37.520;15.106;2022-12-07T06:41:29;73694.16;;;13.20;90.73
54556;BME280;57291;37.520;15.106;2022-12-07T06:43:56;73696.22;;;13.21;90.96
54556;BME280;57291;37.520;15.106;2022-12-07T06:46:24;73698.16;;;13.23;90.87
54556;BME280;57291;37.520;15.106;2022-12-07T06:48:51;73700.19;;;13.25;90.80
54556;BME280;57291;37.520;15.106;2022-12-07T06:51:19;73703.13;;;13.27;90.30
54556;BME280;57291;37.520;15.106;2022-12-07T06:53:46;73706.78;;;13.30;89.36
54556;BME280;57291;37.520;15.106;2022-12-07T06:56:14;73710.56;;;13.34;88.26
54556;BME280;57291;37.520;15.106;2022-12-07T06:58:41;73715.09;;;13.37;86.36
54556;BME280;57291;37.520;15.106;2022-12-07T07:01:10;73719.16;;;13.41;85.09
54556;BME280;57291;37.520;15.106;2022-12-07T07:03:37;73723.81;;;13.45;84.75
54556;BME280;57291;37.520;15.106;2022-12-07T07:06:06;73729.13;;;13.49;84.78
54556;BME280;57291;37.520;15.106;2022-12-07T07:08:35;73734.47;;;13.54;84.94
54556;BME280;57291;37.520;15.106;2022-12-07T07:11:03;73740.19;;;13.59;85.13
54556;BME280;57291;37.520;15.106;2022-12-07T07:13:30;73746.00;;;13.64;85.24
54556;BME280;57291;37.520;15.106;2022-12-07T07:15:58;73752.47;;;13.70;85.20
54556;BME280;57291;37.520;15.106;2022-12-07T07:18:25;73758.38;;;13.75;85.21
54556;BME280;57291;37.520;15.106;2022-12-07T07:20:53;73764.81;;;13.81;85.28
54556;BME280;57291;37.520;15.106;2022-12-07T07:23:21;73771.50;;;13.87;84.98
54556;BME280;57291;37.520;15.106;2022-12-07T07:25:48;73778.78;;;13.93;84.68
54556;BME280;57291;37.520;15.106;2022-12-07T07:28:16;73786.31;;;14.00;84.61
54556;BME280;57291;37.520;15.106;2022-12-07T07:30:43;73794.44;;;14.07;84.50
54556;BME280;57291;37.520;15.106;2022-12-07T07:33:11;73802.38;;;14.14;84.30
54556;BME280;57291;37.520;15.106;2022-12-07T07:35:39;73810.91;;;14.22;84.08
54556;BME280;57291;37.520;15.106;2022-12-07T07:38:07;73819.28;;;14.29;83.97
54556;BME280;57291;37.520;15.106;2022-12-07T07:40:34;73828.31;;;14.37;84.06
54556;BME280;57291;37.520;15.106;2022-12-07T07:43:01;73837.34;;;14.45;83.20
54556;BME280;57291;37.520;15.106;2022-12-07T07:45:28;73846.97;;;14.53;82.54
54556;BME280;57291;37.520;15.106;2022-12-07T07:47:55;73856.44;;;14.62;81.41
54556;BME280;57291;37.520;15.106;2022-12-07T07:50:22;73866.06;;;14.70;81.49
54556;BME280;57291;37.520;15.106;2022-12-07T07:52:51;73875.41;;;14.78;81.55
54556;BME280;57291;37.520;15.106;2022-12-07T07:55:18;73883.97;;;14.86;81.53
54556;BME280;57291;37.520;15.106;2022-12-07T07:57:45;73892.31;;;14.93;80.33
54556;BME280;57291;37.520;15.106;2022-12-07T08:00:20;73900.63;;;15.00;80.28
54556;BME280;57291;37.520;15.106;2022-12-07T08:02:47;73909.09;;;15.08;79.46
54556;BME280;57291;37.520;15.106;2022-12-07T08:05:15;73917.13;;;15.15;79.03
54556;BME280;57291;37.520;15.106;2022-12-07T08:07:42;73924.66;;;15.21;78.70
54556;BME280;57291;37.520;15.106;2022-12-07T08:10:12;73932.31;;;15.29;79.30
54556;BME280;57291;37.520;15.106;2022-12-07T08:12:41;73940.13;;;15.36;78.15
54556;BME280;57291;37.520;15.106;2022-12-07T08:15:28;73948.59;;;15.43;78.41
54556;BME280;57291;37.520;15.106;2022-12-07T08:17:56;73957.16;;;15.51;78.09
54556;BME280;57291;37.520;15.106;2022-12-07T08:20:23;73966.19;;;15.59;77.30
54556;BME280;57291;37.520;15.106;2022-12-07T08:22:50;73974.78;;;15.66;77.01
54556;BME280;57291;37.520;15.106;2022-12-07T08:25:18;73983.69;;;15.74;76.76
54556;BME280;57291;37.520;15.106;2022-12-07T08:27:51;73992.72;;;15.82;76.64
54556;BME280;57291;37.520;15.106;2022-12-07T08:30:19;74001.66;;;15.90;75.78
54556;BME280;57291;37.520;15.106;2022-12-07T08:32:47;74009.88;;;15.97;75.40
54556;BME280;57291;37.520;15.106;2022-12-07T08:35:14;74018.09;;;16.04;74.50
54556;BME280;57291;37.520;15.106;2022-12-07T08:37:42;74025.69;;;16.11;75.02
54556;BME280;57291;37.520;15.106;2022-12-07T08:40:10;74032.91;;;16.17;73.60
54556;BME280;57291;37.520;15.106;2022-12-07T08:42:42;74040.22;;;16.24;73.44
54556;BME280;57291;37.520;15.106;2022-12-07T08:45:12;74048.38;;;16.31;73.37
54556;BME280;57291;37.520;15.106;2022-12-07T08:50:19;74065.53;;;16.46;72.01
54556;BME280;57291;37.520;15.106;2022-12-07T08:52:53;74074.84;;;16.54;72.48
54556;BME280;57291;37.520;15.106;2022-12-07T08:55:21;74085.56;;;16.63;71.70
54556;BME280;57291;37.520;15.106;2022-12-07T08:57:48;74096.25;;;16.72;71.05
54556;BME280;57291;37.520;15.106;2022-12-07T09:00:15;74106.91;;;16.81;70.52
54556;BME280;57291;37.520;15.106;2022-12-07T09:02:45;74116.81;;;16.90;69.00
54556;BME280;57291;37.520;15.106;2022-12-07T09:05:13;74125.38;;;16.98;67.45
54556;BME280;57291;37.520;15.106;2022-12-07T09:07:45;74134.25;;;17.06;67.17
54556;BME280;57291;37.520;15.106;2022-12-07T09:10:14;74142.72;;;17.13;66.40
54556;BME280;57291;37.520;15.106;2022-12-07T09:12:41;74150.09;;;17.20;66.12
54556;BME280;57291;37.520;15.106;2022-12-07T09:15:08;74158.25;;;17.27;66.35
54556;BME280;57291;37.520;15.106;2022-12-07T09:17:36;74166.09;;;17.34;65.66
54556;BME280;57291;37.520;15.106;2022-12-07T09:20:04;74174.66;;;17.41;64.99
54556;BME280;57291;37.520;15.106;2022-12-07T09:22:33;74182.38;;;17.48;63.30
54556;BME280;57291;37.520;15.106;2022-12-07T09:25:01;74188.75;;;17.54;62.32
54556;BME280;57291;37.520;15.106;2022-12-07T09:27:28;74195.59;;;17.60;61.62
54556;BME280;57291;37.520;15.106;2022-12-07T09:29:55;74203.06;;;17.66;62.33
54556;BME280;57291;37.520;15.106;2022-12-07T09:32:23;74209.63;;;17.72;64.99
54556;BME280;57291;37.520;15.106;2022-12-07T09:34:50;74217.56;;;17.79;65.39
54556;BME280;57291;37.520;15.106;2022-12-07T09:37:17;74224.53;;;17.85;66.67
54556;BME280;57291;37.520;15.106;2022-12-07T09:39:45;74230.97;;;17.91;66.91
54556;BME280;57291;37.520;15.106;2022-12-07T09:42:36;74237.25;;;17.96;66.75
54556;BME280;57291;37.520;15.106;2022-12-07T09:45:12;74241.56;;;17.99;67.58
54556;BME280;57291;37.520;15.106;2022-12-07T09:47:41;74245.47;;;18.03;67.94
54556;BME280;57291;37.520;15.106;2022-12-07T09:50:18;74248.97;;;18.06;69.17
54556;BME280;57291;37.520;15.106;2022-12-07T09:52:48;74251.19;;;18.08;70.42
54556;BME280;57291;37.520;15.106;2022-12-07T09:55:25;74253.00;;;18.09;70.74
54556;BME280;57291;37.520;15.106;2022-12-07T09:57:54;74254.47;;;18.10;71.05
54556;BME280;57291;37.520;15.106;2022-12-07T10:00:23;74255.28;;;18.11;71.50
54556;BME280;57291;37.520;15.106;2022-12-07T10:02:59;74255.69;;;18.12;70.71
54556;BME280;57291;37.520;15.106;2022-12-07T10:05:36;74255.88;;;18.12;70.02
54556;BME280;57291;37.520;15.106;2022-12-07T10:08:05;74255.41;;;18.12;70.91
54556;BME280;57291;37.520;15.106;2022-12-07T10:10:34;74254.69;;;18.11;70.88
54556;BME280;57291;37.520;15.106;2022-12-07T10:13:17;74254.34;;;18.11;70.62
54556;BME280;57291;37.520;15.106;2022-12-07T10:15:54;74252.72;;;18.10;70.73
54556;BME280;57291;37.520;15.106;2022-12-07T10:18:39;74251.09;;;18.08;71.98
54556;BME280;57291;37.520;15.106;2022-12-07T10:21:13;74248.56;;;18.06;72.50
54556;BME280;57291;37.520;15.106;2022-12-07T10:23:58;74247.75;;;18.05;73.11
54556;BME280;57291;37.520;15.106;2022-12-07T10:28:59;74247.59;;;18.05;72.69
54556;BME280;57291;37.520;15.106;2022-12-07T10:31:27;74247.81;;;18.06;72.48
54556;BME280;57291;37.520;15.106;2022-12-07T10:34:00;74249.94;;;18.07;71.99
54556;BME280;57291;37.520;15.106;2022-12-07T10:36:38;74252.25;;;18.09;71.83
54556;BME280;57291;37.520;15.106;2022-12-07T10:39:14;74254.59;;;18.11;71.54
54556;BME280;57291;37.520;15.106;2022-12-07T10:42:03;74257.97;;;18.14;71.42
54556;BME280;57291;37.520;15.106;2022-12-07T10:44:32;74261.19;;;18.17;72.20
54556;BME280;57291;37.520;15.106;2022-12-07T10:47:21;74264.69;;;18.20;71.74
54556;BME280;57291;37.520;15.106;2022-12-07T11:00:19;74273.44;;;18.27;72.56
54556;BME280;57291;37.520;15.106;2022-12-07T11:05:59;74274.19;;;18.27;72.22
54556;BME280;57291;37.520;15.106;2022-12-07T11:13:56;74279.81;;;18.33;72.45
54556;BME280;57291;37.520;15.106;2022-12-07T11:19:49;74286.16;;;18.39;71.81
54556;BME280;57291;37.520;15.106;2022-12-07T11:22:34;74290.88;;;18.43;70.76
54556;BME280;57291;37.520;15.106;2022-12-07T11:38:52;74316.09;;;18.65;69.54
54556;BME280;57291;37.520;15.106;2022-12-07T11:41:24;74322.50;;;18.71;69.24
54556;BME280;57291;37.520;15.106;2022-12-07T11:43:59;74328.78;;;18.76;68.87
54556;BME280;57291;37.520;15.106;2022-12-07T11:46:46;74335.03;;;18.82;67.63
54556;BME280;57291;37.520;15.106;2022-12-07T11:51:49;74346.25;;;18.92;67.60
54556;BME280;57291;37.520;15.106;2022-12-07T11:54:23;74352.56;;;18.97;67.02
54556;BME280;57291;37.520;15.106;2022-12-07T11:56:52;74357.31;;;19.02;67.28
54556;BME280;57291;37.520;15.106;2022-12-07T11:59:28;74362.41;;;19.06;66.55
54556;BME280;57291;37.520;15.106;2022-12-07T12:02:03;74368.50;;;19.12;66.78
54556;BME280;57291;37.520;15.106;2022-12-07T12:07:34;74380.69;;;19.22;66.64
54556;BME280;57291;37.520;15.106;2022-12-07T12:10:35;74385.53;;;19.26;66.28
54556;BME280;57291;37.520;15.106;2022-12-07T12:13:27;74388.91;;;19.29;67.38
54556;BME280;57291;37.520;15.106;2022-12-07T12:22:18;74388.47;;;19.29;68.45
54556;BME280;57291;37.520;15.106;2022-12-07T12:24:50;74385.59;;;19.27;69.42
54556;BME280;57291;37.520;15.106;2022-12-07T12:27:35;74382.22;;;19.24;70.36
54556;BME280;57291;37.520;15.106;2022-12-07T12:30:06;74379.13;;;19.21;70.36
54556;BME280;57291;37.520;15.106;2022-12-07T12:32:40;74376.38;;;19.19;69.99
54556;BME280;57291;37.520;15.106;2022-12-07T12:35:33;74373.63;;;19.16;70.25
54556;BME280;57291;37.520;15.106;2022-12-07T12:40:56;74368.47;;;19.11;69.44
54556;BME280;57291;37.520;15.106;2022-12-07T12:43:44;74366.06;;;19.09;69.48
54556;BME280;57291;37.520;15.106;2022-12-07T12:54:37;74350.56;;;18.95;70.05
54556;BME280;57291;37.520;15.106;2022-12-07T13:15:39;74325.88;;;18.74;68.08
54556;BME280;57291;37.520;15.106;2022-12-07T13:31:45;74311.88;;;18.62;68.86
54556;BME280;57291;37.520;15.106;2022-12-07T13:34:41;74309.28;;;18.60;69.37
54556;BME280;57291;37.520;15.106;2022-12-07T13:37:27;74307.09;;;18.58;69.21
54556;BME280;57291;37.520;15.106;2022-12-07T13:40:21;74304.75;;;18.56;69.27
54556;BME280;57291;37.520;15.106;2022-12-07T13:42:57;74302.44;;;18.54;69.67
54556;BME280;57291;37.520;15.106;2022-12-07T13:45:32;74300.44;;;18.51;70.10
54556;BME280;57291;37.520;15.106;2022-12-07T13:48:31;74297.50;;;18.49;70.95
54556;BME280;57291;37.520;15.106;2022-12-07T13:51:01;74294.91;;;18.47;71.18
54556;BME280;57291;37.520;15.106;2022-12-07T13:53:28;74292.13;;;18.44;71.35
54556;BME280;57291;37.520;15.106;2022-12-07T13:56:01;74289.03;;;18.42;71.31
54556;BME280;57291;37.520;15.106;2022-12-07T13:58:30;74285.53;;;18.38;71.93
54556;BME280;57291;37.520;15.106;2022-12-07T14:00:59;74281.69;;;18.35;72.21
54556;BME280;57291;37.520;15.106;2022-12-07T14:03:30;74278.06;;;18.32;72.36
54556;BME280;57291;37.520;15.106;2022-12-07T14:06:13;74274.41;;;18.29;73.46
54556;BME280;57291;37.520;15.106;2022-12-07T14:08:42;74271.41;;;18.26;73.72
54556;BME280;57291;37.520;15.106;2022-12-07T14:11:17;74268.22;;;18.23;74.59
54556;BME280;57291;37.520;15.106;2022-12-07T14:14:04;74264.25;;;18.20;75.15
54556;BME280;57291;37.520;15.106;2022-12-07T14:16:35;74260.00;;;18.16;75.02
54556;BME280;57291;37.520;15.106;2022-12-07T14:19:04;74255.00;;;18.12;75.39
54556;BME280;57291;37.520;15.106;2022-12-07T14:21:34;74250.25;;;18.08;75.88
54556;BME280;57291;37.520;15.106;2022-12-07T14:24:18;74246.03;;;18.04;77.08
54556;BME280;57291;37.520;15.106;2022-12-07T14:26:49;74241.41;;;18.00;77.90
54556;BME280;57291;37.520;15.106;2022-12-07T14:31:53;74231.06;;;17.91;79.06
54556;BME280;57291;37.520;15.106;2022-12-07T14:34:21;74225.75;;;17.87;78.89
54556;BME280;57291;37.520;15.106;2022-12-07T14:36:49;74220.63;;;17.82;78.21
54556;BME280;57291;37.520;15.106;2022-12-07T14:39:16;74215.50;;;17.78;77.96
54556;BME280;57291;37.520;15.106;2022-12-07T14:41:43;74210.81;;;17.74;77.57
54556;BME280;57291;37.520;15.106;2022-12-07T14:44:22;74205.66;;;17.69;76.10
54556;BME280;57291;37.520;15.106;2022-12-07T14:46:55;74201.00;;;17.65;76.91
54556;BME280;57291;37.520;15.106;2022-12-07T14:49:42;74196.06;;;17.61;77.11
54556;BME280;57291;37.520;15.106;2022-12-07T14:52:16;74191.72;;;17.57;76.69
54556;BME280;57291;37.520;15.106;2022-12-07T14:55:07;74186.69;;;17.53;77.49
54556;BME280;57291;37.520;15.106;2022-12-07T14:57:39;74182.03;;;17.49;79.01
54556;BME280;57291;37.520;15.106;2022-12-07T15:00:06;74177.38;;;17.45;78.80
54556;BME280;57291;37.520;15.106;2022-12-07T15:02:34;74172.88;;;17.41;79.25
54556;BME280;57291;37.520;15.106;2022-12-07T15:05:01;74168.66;;;17.37;80.01
54556;BME280;57291;37.520;15.106;2022-12-07T15:07:29;74163.81;;;17.33;80.48
54556;BME280;57291;37.520;15.106;2022-12-07T15:09:56;74159.66;;;17.29;80.71
54556;BME280;57291;37.520;15.106;2022-12-07T15:12:23;74155.19;;;17.25;80.46